Time;durP1;ratioP1;P1;durP2;ratioP2;P2;SDS_P1;SDS_P2;PMS_P1;PMS_P2;Temp;Humidity;BMP_temperature;BMP_pressure;BME280_temperature;BME280_humidity;BME280_pressure;Samples;Min_cycle;Max_cycle;Signal;HPM_P1;HPM_P2
2022/10/25 00:03:53;;;;;;;14.18;4.43;;;;;;;11.16;100.00;100985.41;10348041;28;20145;-91
2022/10/25 00:08:54;;;;;;;13.90;4.25;;;;;;;11.21;100.00;100998.69;10364135;28;20038;-89
2022/10/25 00:13:55;;;;;;;10.85;5.18;;;;;;;11.31;100.00;100995.69;10364269;28;20482;-90
2022/10/25 00:18:56;;;;;;;11.73;4.37;;;;;;;11.28;100.00;100999.06;10366704;28;20041;-88
2022/10/25 00:23:56;;;;;;;15.38;5.88;;;;;;;11.38;100.00;100997.75;10366170;28;20044;-82
2022/10/25 00:28:57;;;;;;;21.02;4.78;;;;;;;11.44;100.00;101000.66;10365614;28;20129;-88
2022/10/25 00:33:57;;;;;;;12.52;4.45;;;;;;;11.49;100.00;101006.13;10366194;28;20406;-87
2022/10/25 00:38:58;;;;;;;16.17;3.75;;;;;;;11.54;100.00;101001.09;10365228;28;20049;-88
2022/10/25 00:44:53;;;;;;;14.27;3.60;;;;;;;11.59;100.00;101002.19;10363579;28;20034;-80
2022/10/25 00:49:57;;;;;;;16.33;3.97;;;;;;;11.60;100.00;100998.75;10314700;28;20394;-81
2022/10/25 00:54:58;;;;;;;13.10;4.10;;;;;;;11.56;100.00;101007.31;10363178;28;20402;-81
2022/10/25 00:59:59;;;;;;;10.20;3.03;;;;;;;11.42;100.00;101012.81;10362757;28;20045;-80
2022/10/25 01:04:59;;;;;;;11.25;3.75;;;;;;;11.23;100.00;101021.53;10363527;28;20379;-84
2022/10/25 01:09:59;;;;;;;10.38;3.97;;;;;;;11.13;100.00;101029.78;10362120;28;20061;-81
2022/10/25 01:15:00;;;;;;;13.98;4.45;;;;;;;11.09;100.00;101033.97;10346098;28;20132;-81
2022/10/25 01:20:34;;;;;;;16.27;5.63;;;;;;;10.86;100.00;101025.88;10362850;28;20049;-82
2022/10/25 01:26:01;;;;;;;11.75;3.33;;;;;;;10.74;100.00;101027.03;10362378;28;20037;-82
2022/10/25 01:31:22;;;;;;;15.18;5.00;;;;;;;10.65;100.00;101027.44;10363262;28;20046;-81
2022/10/25 01:36:28;;;;;;;11.52;4.55;;;;;;;10.61;100.00;101031.66;10362068;28;20521;-81
2022/10/25 01:41:50;;;;;;;17.50;4.65;;;;;;;10.68;100.00;101032.84;10363309;28;20045;-80
2022/10/25 01:46:53;;;;;;;13.97;4.20;;;;;;;10.89;100.00;101046.09;10361864;28;20381;-81
2022/10/25 01:51:54;;;;;;;21.05;6.40;;;;;;;11.05;100.00;101039.00;10343659;28;20045;-80
2022/10/25 01:57:07;;;;;;;14.00;3.85;;;;;;;10.85;100.00;101036.31;10361859;28;20042;-80
2022/10/25 02:02:16;;;;;;;11.95;3.58;;;;;;;10.67;100.00;101034.56;10343980;28;20044;-80
2022/10/25 02:07:23;;;;;;;16.60;6.75;;;;;;;10.68;100.00;101036.38;10362192;28;20425;-81
2022/10/25 02:12:29;;;;;;;21.17;7.53;;;;;;;10.67;100.00;101045.03;10360572;28;20041;-81
2022/10/25 02:17:29;;;;;;;19.90;5.05;;;;;;;10.78;100.00;101044.69;10361522;28;20033;-81
2022/10/25 02:22:30;;;;;;;18.45;5.03;;;;;;;10.83;100.00;101049.31;10342635;28;20064;-81
2022/10/25 02:27:30;;;;;;;12.38;6.28;;;;;;;10.89;100.00;101056.59;10342576;28;20044;-81
2022/10/25 02:32:31;;;;;;;16.65;4.30;;;;;;;10.99;100.00;101053.59;10360389;28;20040;-80
2022/10/25 02:37:31;;;;;;;27.15;7.80;;;;;;;11.01;100.00;101062.41;10358677;28;20057;-81
2022/10/25 02:42:32;;;;;;;19.40;6.43;;;;;;;11.06;100.00;101060.00;10360976;28;20042;-81
2022/10/25 02:47:32;;;;;;;12.05;3.97;;;;;;;11.09;100.00;101062.78;10361353;28;20048;-80
2022/10/25 02:52:33;;;;;;;20.10;6.47;;;;;;;11.12;100.00;101065.53;10359606;28;20062;-84
2022/10/25 02:57:34;;;;;;;9.27;3.55;;;;;;;11.10;100.00;101063.69;10359818;28;20124;-87
2022/10/25 03:02:35;;;;;;;11.48;3.85;;;;;;;10.99;100.00;101077.16;10360204;28;20049;-87
2022/10/25 03:07:35;;;;;;;14.73;4.55;;;;;;;11.13;100.00;101076.94;10361099;28;20088;-88
2022/10/25 03:12:36;;;;;;;20.20;6.38;;;;;;;11.07;100.00;101067.03;10360063;28;20113;-85
2022/10/25 03:17:36;;;;;;;17.75;4.88;;;;;;;11.09;100.00;101070.63;10359814;28;20398;-84
2022/10/25 03:22:37;;;;;;;15.48;4.65;;;;;;;11.07;100.00;101081.88;10359773;28;20065;-84
2022/10/25 03:27:37;;;;;;;8.32;3.05;;;;;;;10.98;100.00;101082.31;10360436;28;20416;-85
2022/10/25 03:32:38;;;;;;;14.20;4.32;;;;;;;11.01;100.00;101091.22;10363068;28;20080;-80
2022/10/25 03:37:38;;;;;;;9.40;4.10;;;;;;;11.08;100.00;101107.25;10367655;28;20129;-80
2022/10/25 03:42:39;;;;;;;16.70;3.30;;;;;;;11.01;100.00;101100.78;10367956;28;20441;-80
2022/10/25 03:47:39;;;;;;;19.58;4.40;;;;;;;11.01;100.00;101116.50;10367962;28;20036;-80
2022/10/25 03:52:40;;;;;;;13.35;3.50;;;;;;;11.07;100.00;101116.81;10364952;28;20387;-80
2022/10/25 03:57:40;;;;;;;10.43;3.97;;;;;;;11.20;100.00;101126.19;10366971;28;20050;-80
2022/10/25 04:02:41;;;;;;;11.15;3.80;;;;;;;11.19;100.00;101128.72;10367365;28;20038;-81
2022/10/25 04:07:41;;;;;;;8.02;3.30;;;;;;;11.23;100.00;101133.28;10366326;28;20054;-81
2022/10/25 04:12:42;;;;;;;16.52;4.80;;;;;;;11.33;100.00;101125.06;10366732;28;20037;-81
2022/10/25 04:17:42;;;;;;;10.95;4.60;;;;;;;11.37;100.00;101126.13;10365712;28;20137;-80
2022/10/25 04:22:43;;;;;;;14.63;3.83;;;;;;;11.36;100.00;101134.81;10364006;28;20509;-79
2022/10/25 04:27:43;;;;;;;10.90;3.75;;;;;;;11.36;100.00;101137.41;10358501;28;20052;-79
2022/10/25 04:32:44;;;;;;;12.88;3.42;;;;;;;11.23;100.00;101141.16;10364465;28;20038;-79
2022/10/25 04:37:45;;;;;;;16.33;5.57;;;;;;;11.23;100.00;101133.28;10362428;28;20049;-85
2022/10/25 04:42:45;;;;;;;14.18;5.75;;;;;;;11.14;100.00;101142.47;10361982;28;20414;-86
2022/10/25 04:47:48;;;;;;;9.35;3.50;;;;;;;10.97;100.00;101136.41;10362154;28;20049;-82
2022/10/25 04:52:50;;;;;;;18.15;5.13;;;;;;;10.76;100.00;101136.22;10362296;28;20038;-83
2022/10/25 04:57:50;;;;;;;24.58;6.47;;;;;;;10.69;100.00;101141.97;10363708;28;20132;-82
2022/10/25 05:02:51;;;;;;;16.20;4.55;;;;;;;10.50;100.00;101147.97;10363497;28;20053;-81
2022/10/25 05:07:52;;;;;;;15.82;5.25;;;;;;;10.46;100.00;101156.47;10366806;28;20486;-79
2022/10/25 05:12:53;;;;;;;20.52;5.22;;;;;;;10.30;100.00;101158.25;10390888;28;20045;-81
2022/10/25 05:17:57;;;;;;;32.03;4.95;;;;;;;10.35;100.00;101158.47;10360934;28;20066;-80
2022/10/25 05:22:58;;;;;;;13.25;5.53;;;;;;;10.31;100.00;101162.66;10360442;28;20132;-84
2022/10/25 05:27:58;;;;;;;11.13;3.97;;;;;;;10.26;100.00;101178.09;10363033;28;20046;-88
2022/10/25 05:32:59;;;;;;;10.70;4.82;;;;;;;10.14;100.00;101186.19;10359868;28;20383;-87
2022/10/25 05:38:00;;;;;;;17.80;6.50;;;;;;;10.17;100.00;101185.44;10356733;28;20499;-82
2022/10/25 05:43:10;;;;;;;25.73;7.10;;;;;;;10.12;100.00;101185.22;10360580;28;20398;-82
2022/10/25 05:48:11;;;;;;;13.35;6.43;;;;;;;9.98;100.00;101187.03;10358344;28;20046;-84
2022/10/25 05:53:11;;;;;;;12.55;6.55;;;;;;;9.92;100.00;101189.31;10363119;28;20075;-84
2022/10/25 05:58:12;;;;;;;14.75;7.28;;;;;;;9.86;100.00;101191.59;10372812;28;20098;-84
2022/10/25 06:03:13;;;;;;;17.40;5.53;;;;;;;9.77;100.00;101210.28;10344084;28;20034;-85
2022/10/25 06:08:13;;;;;;;13.15;4.70;;;;;;;9.79;100.00;101206.06;10359380;28;20518;-84
2022/10/25 06:13:14;;;;;;;12.90;5.53;;;;;;;9.79;100.00;101223.44;10364152;28;20088;-83
2022/10/25 06:18:33;;;;;;;12.95;5.55;;;;;;;9.79;100.00;101223.44;10358343;28;20445;-83
2022/10/25 06:23:36;;;;;;;10.93;4.97;;;;;;;9.74;100.00;101232.72;10332045;28;20037;-84
2022/10/25 06:28:37;;;;;;;15.55;5.63;;;;;;;9.88;100.00;101234.41;10355350;28;20100;-81
2022/10/25 06:33:38;;;;;;;15.38;5.60;;;;;;;9.90;100.00;101244.97;10338628;28;20120;-79
2022/10/25 06:38:38;;;;;;;19.40;7.25;;;;;;;10.02;100.00;101247.38;10359963;28;20041;-79
2022/10/25 06:43:39;;;;;;;18.63;6.50;;;;;;;10.24;100.00;101247.75;10353022;28;20041;-78
2022/10/25 06:48:39;;;;;;;19.98;7.28;;;;;;;10.48;100.00;101267.38;10341062;28;20058;-78
2022/10/25 06:53:40;;;;;;;13.43;6.45;;;;;;;10.61;100.00;101263.69;10353226;28;20033;-80
2022/10/25 06:58:40;;;;;;;11.82;6.03;;;;;;;10.75;100.00;101272.28;10355187;28;20054;-80
2022/10/25 07:03:41;;;;;;;25.55;7.43;;;;;;;10.82;100.00;101272.69;10356833;28;20038;-80
2022/10/25 07:08:43;;;;;;;11.68;5.72;;;;;;;10.86;100.00;101269.41;10355744;28;20049;-78
2022/10/25 07:13:44;;;;;;;13.48;5.78;;;;;;;11.07;100.00;101280.94;10340361;28;20042;-79
2022/10/25 07:18:45;;;;;;;13.90;6.63;;;;;;;11.06;100.00;101284.38;10369612;28;20382;-79
2022/10/25 07:23:45;;;;;;;13.48;5.25;;;;;;;11.01;100.00;101291.97;10369269;28;20059;-80
2022/10/25 07:28:46;;;;;;;15.57;4.78;;;;;;;10.92;100.00;101287.19;10340525;28;20061;-79
2022/10/25 07:33:47;;;;;;;10.25;4.50;;;;;;;10.94;100.00;101295.09;10357757;28;20048;-79
2022/10/25 07:38:48;;;;;;;15.27;5.57;;;;;;;11.29;100.00;101303.91;10338377;28;20049;-79
2022/10/25 07:43:49;;;;;;;7.60;3.80;;;;;;;11.84;100.00;101300.56;10353549;28;20125;-79
2022/10/25 07:48:51;;;;;;;10.77;3.80;;;;;;;11.90;100.00;101302.56;10358314;28;20046;-79
2022/10/25 07:53:52;;;;;;;13.68;5.35;;;;;;;12.13;100.00;101313.31;10357832;28;20508;-79
2022/10/25 07:58:52;;;;;;;14.05;4.10;;;;;;;12.57;100.00;101313.66;10340877;28;20030;-78
2022/10/25 08:03:53;;;;;;;11.82;5.05;;;;;;;12.65;100.00;101316.63;10356510;28;20096;-80
2022/10/25 08:08:54;;;;;;;13.90;4.82;;;;;;;12.59;100.00;101317.25;10353078;28;20053;-83
2022/10/25 08:13:54;;;;;;;12.40;7.07;;;;;;;12.58;100.00;101320.72;10364246;28;20129;-85
2022/10/25 08:18:55;;;;;;;11.10;4.80;;;;;;;12.74;100.00;101328.47;10366501;28;20038;-79
2022/10/25 08:23:55;;;;;;;16.52;4.10;;;;;;;12.99;100.00;101326.03;10358559;28;20030;-83
2022/10/25 08:28:56;;;;;;;7.28;2.83;;;;;;;13.20;100.00;101329.63;10364652;28;20131;-82
2022/10/25 08:33:56;;;;;;;12.52;3.55;;;;;;;13.48;100.00;101325.63;10364989;28;20125;-81
2022/10/25 08:38:57;;;;;;;8.55;2.53;;;;;;;13.48;100.00;101344.03;10364227;28;20465;-81
2022/10/25 08:44:34;;;;;;;11.65;2.97;;;;;;;13.86;100.00;101343.88;10362096;28;20461;-81
2022/10/25 08:49:43;;;;;;;9.18;2.65;;;;;;;13.83;98.75;101333.22;10363248;28;20034;-82
2022/10/25 08:54:45;;;;;;;10.63;2.67;;;;;;;13.99;99.13;101347.00;10363562;28;20045;-80
2022/10/25 08:59:48;;;;;;;8.20;2.20;;;;;;;14.10;96.27;101350.97;10361891;28;20038;-81
2022/10/25 09:04:49;;;;;;;6.63;2.67;;;;;;;14.07;95.89;101353.50;10364338;28;20610;-80
2022/10/25 09:09:57;;;;;;;8.65;3.38;;;;;;;14.27;96.32;101356.91;10346107;28;20105;-79
2022/10/25 09:15:16;;;;;;;6.57;2.08;;;;;;;14.96;95.26;101360.50;10346262;28;20069;-80
2022/10/25 09:20:25;;;;;;;6.72;1.88;;;;;;;15.14;87.62;101362.91;10362031;28;20038;-83
2022/10/25 09:25:47;;;;;;;7.50;2.63;;;;;;;15.22;89.58;101379.00;10345719;28;20040;-84
2022/10/25 09:30:48;;;;;;;4.28;1.65;;;;;;;15.65;85.30;101388.47;10331327;28;20390;-83
2022/10/25 09:35:58;;;;;;;5.07;1.70;;;;;;;15.54;85.16;101389.81;10344894;28;20057;-79
2022/10/25 09:41:11;;;;;;;15.27;3.50;;;;;;;16.82;78.72;101389.59;10360405;28;20042;-82
2022/10/25 09:46:14;;;;;;;6.07;1.80;;;;;;;18.14;76.03;101388.00;10363203;28;20038;-84
2022/10/25 09:51:30;;;;;;;3.88;1.45;;;;;;;19.10;67.84;101395.50;10342876;28;20052;-85
2022/10/25 09:56:31;;;;;;;11.35;2.08;;;;;;;17.97;68.81;101403.41;10361775;28;20038;-80
2022/10/25 10:01:31;;;;;;;7.40;3.40;;;;;;;17.11;74.46;101395.81;10344043;28;20493;-81
2022/10/25 10:06:34;;;;;;;5.20;2.28;;;;;;;16.62;75.64;101396.94;10361089;28;20042;-81
2022/10/25 10:11:35;;;;;;;9.45;2.53;;;;;;;18.08;69.44;101401.06;10359114;28;20428;-79
2022/10/25 10:16:40;;;;;;;9.90;3.80;;;;;;;18.32;68.89;101395.47;10343325;28;20041;-81
2022/10/25 10:21:42;;;;;;;8.68;2.03;;;;;;;16.92;74.00;101406.66;10327250;28;20431;-81
2022/10/25 10:26:47;;;;;;;;;;;;;;;15.83;78.68;101408.44;10344230;28;20125;-80
2022/10/25 10:31:53;;;;;;;11.20;2.30;;;;;;;15.23;83.37;101412.44;10359184;28;19917;-86
2022/10/25 10:37:11;;;;;;;15.63;3.45;;;;;;;14.88;86.37;101414.66;10343786;28;20121;-88
2022/10/25 10:42:19;;;;;;;5.68;2.42;;;;;;;14.93;86.21;101416.59;10360458;28;20061;-85
2022/10/25 10:47:19;;;;;;;11.15;2.47;;;;;;;15.14;85.95;101413.00;10360532;28;20041;-86
2022/10/25 10:52:29;;;;;;;4.30;1.58;;;;;;;15.37;84.90;101426.13;10358953;28;20041;-85
2022/10/25 10:57:33;;;;;;;6.80;2.13;;;;;;;15.46;83.35;101413.28;10358963;28;20046;-84
2022/10/25 11:02:38;;;;;;;7.20;2.10;;;;;;;15.49;82.17;101421.31;10359559;28;20045;-81
2022/10/25 11:07:41;;;;;;;8.68;3.15;;;;;;;15.67;80.40;101420.16;10357984;28;20525;-80
2022/10/25 11:12:42;;;;;;;10.60;3.30;;;;;;;15.62;81.79;101427.03;10356162;28;20045;-80
2022/10/25 11:17:47;;;;;;;7.28;2.03;;;;;;;15.64;80.26;101427.97;10342242;28;20058;-81
2022/10/25 11:23:02;;;;;;;4.63;2.20;;;;;;;15.41;79.85;101428.94;10342076;28;20145;-81
2022/10/25 11:28:20;;;;;;;4.68;1.55;;;;;;;15.66;80.72;101421.00;10341012;28;20104;-81
2022/10/25 11:33:39;;;;;;;9.43;2.58;;;;;;;15.94;78.04;101420.28;10359781;28;20041;-80
2022/10/25 11:39:18;;;;;;;6.40;1.52;;;;;;;17.92;71.38;101408.59;10358799;28;20038;-80
2022/10/25 11:44:53;;;;;;;7.65;2.03;;;;;;;18.36;68.15;101409.72;10354766;28;20032;-81
2022/10/25 11:50:22;;;;;;;5.38;1.92;;;;;;;17.95;68.74;101403.38;10356997;28;20048;-81
2022/10/25 11:55:44;;;;;;;6.55;2.00;;;;;;;17.31;70.54;101399.00;10362769;28;20401;-83
2022/10/25 12:00:56;;;;;;;7.18;1.73;;;;;;;17.74;71.69;101395.75;10365610;28;20068;-79
2022/10/25 12:06:26;;;;;;;5.82;1.70;;;;;;;17.09;71.96;101397.50;10365413;28;20406;-78
2022/10/25 12:11:31;;;;;;;9.75;3.60;;;;;;;16.39;74.96;101405.91;10347559;28;20160;-78
2022/10/25 12:16:32;;;;;;;6.93;2.53;;;;;;;15.92;77.22;101406.13;10332486;28;20489;-82
2022/10/25 12:21:42;;;;;;;9.70;2.50;;;;;;;15.79;78.60;101407.41;10358618;28;20038;-81
2022/10/25 12:26:43;;;;;;;7.72;2.40;;;;;;;15.73;78.29;101396.63;10361732;28;20057;-79
2022/10/25 12:31:57;;;;;;;4.00;2.00;;;;;;;18.70;69.45;101387.50;10347858;28;20498;-79
2022/10/25 12:37:12;;;;;;;7.65;2.25;;;;;;;18.06;67.27;101401.03;10348109;28;20041;-80
2022/10/25 12:42:15;;;;;;;4.45;1.48;;;;;;;17.93;68.23;101383.00;10363949;28;20041;-79
2022/10/25 12:47:36;;;;;;;5.40;1.85;;;;;;;17.52;70.38;101396.94;10363181;28;20054;-78
2022/10/25 12:52:38;;;;;;;10.05;2.40;;;;;;;19.01;62.69;101397.94;10363817;28;20041;-77
2022/10/25 12:58:11;;;;;;;6.82;1.95;;;;;;;19.66;61.27;101391.28;10347317;28;20050;-77
2022/10/25 13:03:17;;;;;;;4.50;1.42;;;;;;;21.50;56.76;101385.13;10353606;28;20042;-81
2022/10/25 13:08:18;;;;;;;6.10;1.50;;;;;;;22.49;51.49;101379.78;10360487;28;20053;-80
2022/10/25 13:13:43;;;;;;;2.83;1.50;;;;;;;22.86;52.68;101385.31;10359466;28;20100;-80
2022/10/25 13:18:44;;;;;;;5.15;1.15;;;;;;;21.11;53.66;101378.47;10345622;28;20142;-81
2022/10/25 13:23:45;;;;;;;4.20;1.40;;;;;;;18.70;63.17;101391.94;10341319;28;20058;-80
2022/10/25 13:28:53;;;;;;;7.93;1.43;;;;;;;17.72;67.58;101384.22;10345563;28;20060;-80
2022/10/25 13:34:11;;;;;;;5.88;1.60;;;;;;;18.33;66.25;101387.56;10361644;28;20057;-80
2022/10/25 13:39:24;;;;;;;3.20;1.15;;;;;;;21.12;59.43;101378.47;10363244;28;20402;-80
2022/10/25 13:44:24;;;;;;;5.57;1.83;;;;;;;20.92;55.37;101387.97;10329740;28;20478;-81
2022/10/25 13:49:41;;;;;;;5.05;1.48;;;;;;;18.69;63.67;101390.16;10344838;28;20137;-82
2022/10/25 13:54:49;;;;;;;5.05;2.08;;;;;;;17.42;68.09;101379.91;10345748;28;20038;-81
2022/10/25 13:59:49;;;;;;;7.32;1.00;;;;;;;18.40;64.44;101383.31;10343357;28;20085;-81
2022/10/25 14:04:50;;;;;;;5.97;1.35;;;;;;;18.90;63.82;101389.72;10362726;28;20042;-81
2022/10/25 14:09:52;;;;;;;2.13;0.73;;;;;;;19.01;62.33;101384.69;10344408;28;20058;-81
2022/10/25 14:14:59;;;;;;;3.40;1.20;;;;;;;17.31;67.57;101388.44;10361747;28;20497;-81
2022/10/25 14:20:25;;;;;;;5.95;1.33;;;;;;;17.46;66.09;101379.13;10358852;28;20398;-81
2022/10/25 14:25:39;;;;;;;9.15;2.28;;;;;;;17.52;69.08;101378.41;10359302;28;20092;-81
2022/10/25 14:30:46;;;;;;;2.78;0.98;;;;;;;19.18;61.23;101371.75;10359922;28;20506;-81
2022/10/25 14:35:48;;;;;;;3.75;1.08;;;;;;;18.60;62.56;101375.81;10327138;28;20057;-81
2022/10/25 14:40:49;;;;;;;;;;;;;;;18.95;60.98;101374.78;10327765;28;20045;-84
2022/10/25 14:46:11;;;;;;;6.32;1.33;;;;;;;19.67;56.91;101372.69;10374428;28;20336;-78
2022/10/25 14:51:20;;;;;;;5.15;1.77;;;;;;;18.29;60.33;101379.50;10371437;28;20038;-79
2022/10/25 14:56:28;;;;;;;3.55;1.15;;;;;;;17.09;65.86;101368.44;10391090;28;20038;-80
2022/10/25 15:01:28;;;;;;;6.55;1.85;;;;;;;16.55;68.71;101367.69;10347377;28;20060;-82
2022/10/25 15:06:30;;;;;;;2.28;0.95;;;;;;;16.25;70.10;101362.31;10354850;28;20042;-81
2022/10/25 15:11:31;;;;;;;6.53;1.50;;;;;;;15.43;73.41;101365.69;10341693;28;20038;-81
2022/10/25 15:16:35;;;;;;;6.17;1.40;;;;;;;14.84;75.99;101366.19;10352534;28;20100;-80
2022/10/25 15:21:40;;;;;;;7.05;1.60;;;;;;;14.60;78.23;101360.84;10345065;28;20033;-81
2022/10/25 15:27:00;;;;;;;11.48;1.80;;;;;;;14.16;82.57;101348.59;10355097;28;20048;-81
2022/10/25 15:32:01;;;;;;;7.55;1.95;;;;;;;13.69;83.96;101350.16;10367056;28;20120;-81
2022/10/25 15:37:01;;;;;;;6.22;1.50;;;;;;;13.35;86.14;101353.09;10349247;28;20168;-82
2022/10/25 15:42:02;;;;;;;4.80;1.50;;;;;;;12.81;89.28;101355.00;10380280;28;20533;-81
2022/10/25 15:47:02;;;;;;;4.55;1.77;;;;;;;12.53;92.24;101348.47;10365505;28;20041;-81
2022/10/25 15:52:03;;;;;;;9.73;3.92;;;;;;;12.27;94.82;101353.38;10369041;28;20486;-82
2022/10/25 15:57:03;;;;;;;9.38;2.20;;;;;;;12.05;96.22;101341.81;10364980;28;20041;-82
2022/10/25 16:02:17;;;;;;;14.60;3.50;;;;;;;11.75;98.07;101339.44;10362853;28;20110;-81
2022/10/25 16:07:17;;;;;;;4.75;1.45;;;;;;;11.40;100.00;101343.78;10347646;28;20050;-82
2022/10/25 16:12:19;;;;;;;7.93;2.05;;;;;;;11.24;100.00;101344.69;10363909;28;20042;-81
2022/10/25 16:17:20;;;;;;;6.88;3.90;;;;;;;11.00;100.00;101351.34;10346693;28;20046;-85
2022/10/25 16:22:21;;;;;;;11.32;2.55;;;;;;;10.69;100.00;101346.13;10359792;28;20528;-83
2022/10/25 16:27:21;;;;;;;4.90;1.60;;;;;;;10.43;100.00;101342.97;10361181;28;20049;-82
2022/10/25 16:32:22;;;;;;;8.63;1.83;;;;;;;10.28;100.00;101336.03;10360767;28;20116;-81
2022/10/25 16:37:22;;;;;;;7.13;2.10;;;;;;;10.12;100.00;101343.84;10365515;28;20038;-81
2022/10/25 16:42:30;;;;;;;10.43;2.08;;;;;;;9.97;100.00;101343.88;10345634;28;20038;-80
2022/10/25 16:47:30;;;;;;;8.65;2.53;;;;;;;9.88;100.00;101345.94;10346779;28;20046;-81
2022/10/25 16:52:31;;;;;;;25.10;5.50;;;;;;;9.73;100.00;101336.41;10342767;28;20413;-84
2022/10/25 16:57:32;;;;;;;19.30;6.68;;;;;;;9.61;100.00;101333.94;10360243;28;20038;-82
2022/10/25 17:02:32;;;;;;;17.90;7.35;;;;;;;9.51;100.00;101329.00;10359018;28;20041;-78
2022/10/25 17:07:33;;;;;;;24.80;9.85;;;;;;;9.44;100.00;101332.97;10379199;28;20085;-81
2022/10/25 17:12:40;;;;;;;20.15;3.40;;;;;;;9.35;100.00;101322.84;10375281;28;20048;-80
2022/10/25 17:17:40;;;;;;;9.38;3.10;;;;;;;9.18;100.00;101321.84;10358637;28;20054;-80
2022/10/25 17:22:41;;;;;;;8.65;2.95;;;;;;;9.04;100.00;101330.56;10361141;28;20038;-79
2022/10/25 17:27:46;;;;;;;14.38;3.22;;;;;;;8.89;100.00;101322.66;10344177;28;20073;-80
2022/10/25 17:32:46;;;;;;;13.05;2.30;;;;;;;8.78;100.00;101324.63;10359799;28;20092;-77
2022/10/25 17:37:47;;;;;;;11.18;3.05;;;;;;;8.76;100.00;101311.47;10360093;28;20108;-78
2022/10/25 17:42:47;;;;;;;12.85;3.75;;;;;;;8.63;100.00;101312.44;10342105;28;20140;-78
2022/10/25 17:47:48;;;;;;;23.88;4.47;;;;;;;8.55;100.00;101318.88;10360225;28;20041;-78
2022/10/25 17:52:49;;;;;;;7.53;2.95;;;;;;;8.50;100.00;101312.47;10359343;28;20069;-78
2022/10/25 17:57:50;;;;;;;17.47;3.40;;;;;;;8.58;100.00;101315.53;10359644;28;20048;-79
2022/10/25 18:02:52;;;;;;;6.25;3.10;;;;;;;8.57;100.00;101313.72;10358558;28;20084;-78
2022/10/25 18:07:53;;;;;;;17.07;3.17;;;;;;;8.55;100.00;101317.94;10359774;28;20034;-78
2022/10/25 18:12:53;;;;;;;12.75;3.53;;;;;;;8.49;100.00;101311.53;10342931;28;20120;-78
2022/10/25 18:17:54;;;;;;;16.65;3.63;;;;;;;8.39;100.00;101316.94;10360783;28;20196;-78
2022/10/25 18:22:54;;;;;;;10.43;3.85;;;;;;;8.32;100.00;101322.56;10359258;28;20081;-77
2022/10/25 18:27:55;;;;;;;23.58;7.40;;;;;;;8.30;100.00;101313.75;10358996;28;20042;-78
2022/10/25 18:32:56;;;;;;;14.98;7.10;;;;;;;8.28;100.00;101320.56;10360515;28;20499;-78
2022/10/25 18:37:57;;;;;;;14.70;4.70;;;;;;;8.06;100.00;101313.97;10342018;28;20050;-78
2022/10/25 18:42:57;;;;;;;11.90;3.70;;;;;;;7.87;100.00;101311.88;10364892;28;20114;-78
2022/10/25 18:47:58;;;;;;;8.45;3.28;;;;;;;7.68;100.00;101310.66;10357220;28;20083;-78
2022/10/25 18:52:58;;;;;;;13.07;4.30;;;;;;;7.67;100.00;101310.56;10357394;28;20030;-78
2022/10/25 18:58:00;;;;;;;11.00;3.85;;;;;;;7.59;100.00;101299.63;10358069;28;20120;-80
2022/10/25 19:03:00;;;;;;;15.05;5.10;;;;;;;7.56;100.00;101302.91;10359641;28;20042;-79
2022/10/25 19:08:01;;;;;;;46.33;8.35;;;;;;;7.43;100.00;101300.28;10360092;28;20026;-79
2022/10/25 19:13:01;;;;;;;9.18;4.50;;;;;;;7.56;100.00;101299.44;10359291;28;20045;-79
2022/10/25 19:18:02;;;;;;;15.25;4.45;;;;;;;7.70;100.00;101295.13;10358507;28;20073;-79
2022/10/25 19:23:03;;;;;;;13.88;5.38;;;;;;;7.71;100.00;101281.28;10357185;28;20037;-77
2022/10/25 19:28:04;;;;;;;20.48;6.05;;;;;;;7.69;100.00;101289.03;10353961;28;20046;-77
2022/10/25 19:33:05;;;;;;;13.60;6.78;;;;;;;7.66;100.00;101286.22;10356022;28;20065;-77
2022/10/25 19:38:05;;;;;;;13.70;7.15;;;;;;;7.68;100.00;101276.81;10357400;28;20037;-77
2022/10/25 19:43:06;;;;;;;24.20;14.02;;;;;;;7.58;100.00;101277.88;10355649;28;20129;-78
2022/10/25 19:48:06;;;;;;;13.27;8.35;;;;;;;7.63;100.00;101276.47;10356210;28;20042;-77
2022/10/25 19:53:07;;;;;;;16.23;8.07;;;;;;;7.67;100.00;101276.69;10339053;28;20061;-77
2022/10/25 19:58:07;;;;;;;50.15;10.27;;;;;;;7.58;100.00;101270.06;10357222;28;20042;-77
2022/10/25 20:03:08;;;;;;;26.20;9.55;;;;;;;7.56;100.00;101265.56;10357951;28;20041;-78
2022/10/25 20:08:08;;;;;;;21.17;7.30;;;;;;;7.49;100.00;101259.94;10355665;28;20034;-76
2022/10/25 20:13:09;;;;;;;27.83;9.57;;;;;;;7.55;100.00;101262.03;10340630;28;20044;-76
2022/10/25 20:18:09;;;;;;;30.67;11.15;;;;;;;7.58;100.00;101254.44;10363821;28;20058;-77
2022/10/25 20:23:12;;;;;;;22.42;8.85;;;;;;;7.62;100.00;101259.03;10347651;28;20069;-76
2022/10/25 20:28:13;;;;;;;23.17;11.10;;;;;;;7.63;100.00;101254.75;10364439;28;20448;-77
2022/10/25 20:33:14;;;;;;;28.13;10.52;;;;;;;7.53;100.00;101249.75;10358135;28;20121;-76
2022/10/25 20:38:15;;;;;;;21.80;9.50;;;;;;;7.51;100.00;101256.53;10344293;28;20050;-75
2022/10/25 20:43:16;;;;;;;20.65;9.48;;;;;;;7.48;100.00;101249.41;10343795;28;20524;-77
2022/10/25 20:48:16;;;;;;;18.75;9.20;;;;;;;7.54;100.00;101243.72;10352999;28;20049;-77
2022/10/25 20:53:17;;;;;;;17.23;9.38;;;;;;;7.51;100.00;101241.81;10360005;28;20048;-77
2022/10/25 20:58:18;;;;;;;28.05;10.43;;;;;;;7.52;100.00;101230.59;10343835;28;20104;-76
2022/10/25 21:03:19;;;;;;;19.67;7.90;;;;;;;7.54;100.00;101239.41;10362024;28;20124;-76
2022/10/25 21:08:22;;;;;;;18.17;7.72;;;;;;;7.57;100.00;101234.41;10362046;28;20057;-76
2022/10/25 21:13:23;;;;;;;19.10;9.23;;;;;;;7.47;100.00;101238.13;10363642;28;20053;-76
2022/10/25 21:18:27;;;;;;;22.58;8.95;;;;;;;7.42;100.00;101238.59;10359834;28;20034;-77
2022/10/25 21:23:28;;;;;;;24.35;8.75;;;;;;;7.32;100.00;101231.88;10363071;28;20092;-76
2022/10/25 21:28:38;;;;;;;21.65;7.60;;;;;;;7.37;100.00;101226.97;10361408;28;20058;-76
2022/10/25 21:33:40;;;;;;;24.23;6.95;;;;;;;7.36;100.00;101228.69;10359966;28;20594;-77
2022/10/25 21:38:41;;;;;;;;;;;;;;;7.39;100.00;101222.75;10363250;28;20037;-76
2022/10/25 21:43:42;;;;;;;18.30;7.53;;;;;;;7.29;100.00;101222.16;10360118;28;20381;-76
2022/10/25 21:48:46;;;;;;;30.45;8.18;;;;;;;7.39;100.00;101227.97;10342725;28;20034;-76
2022/10/25 21:53:46;;;;;;;14.98;6.35;;;;;;;7.39;100.00;101228.88;10359555;28;20034;-76
2022/10/25 21:58:50;;;;;;;20.58;8.05;;;;;;;7.45;100.00;101223.16;10359710;28;20045;-77
2022/10/25 22:03:51;;;;;;;13.75;6.72;;;;;;;7.37;100.00;101232.19;10348482;28;20381;-77
2022/10/25 22:08:52;;;;;;;12.20;6.35;;;;;;;7.36;100.00;101233.91;10360940;28;20038;-76
2022/10/25 22:14:07;;;;;;;21.77;6.10;;;;;;;7.40;100.00;101234.97;10362361;28;20034;-77
2022/10/25 22:19:14;;;;;;;14.73;7.60;;;;;;;7.39;100.00;101220.16;10359421;28;20133;-77
2022/10/25 22:24:15;;;;;;;12.38;6.15;;;;;;;7.46;100.00;101223.28;10359301;28;20053;-77
2022/10/25 22:29:16;;;;;;;17.38;7.07;;;;;;;7.61;100.00;101219.88;10358839;28;20053;-77
2022/10/25 22:34:16;;;;;;;16.35;8.25;;;;;;;7.60;100.00;101218.09;10358972;28;20042;-77
2022/10/25 22:39:17;;;;;;;18.48;8.85;;;;;;;7.64;100.00;101218.38;10357919;28;20140;-77
2022/10/25 22:44:17;;;;;;;14.15;6.07;;;;;;;7.70;100.00;101211.75;10358016;28;20034;-77
2022/10/25 22:49:18;;;;;;;22.55;8.02;;;;;;;7.68;100.00;101202.94;10358312;28;20041;-77
2022/10/25 22:54:18;;;;;;;21.60;7.57;;;;;;;7.73;100.00;101188.50;10358965;28;20038;-77
2022/10/25 22:59:19;;;;;;;16.23;6.72;;;;;;;7.85;100.00;101196.22;10356995;28;20671;-77
2022/10/25 23:04:19;;;;;;;12.63;7.82;;;;;;;7.90;100.00;101197.41;10356218;28;20034;-77